sensor_id;sensor_type;location;lat;lon;timestamp;P1;durP1;ratioP1;P2;durP2;ratioP2
74291;SDS011;62687;55.738;37.516;2023-02-11T00:00:47;10.02;;;4.97;;
74291;SDS011;62687;55.738;37.516;2023-02-11T00:03:31;9.63;;;3.47;;
74291;SDS011;62687;55.738;37.516;2023-02-11T00:06:15;12.85;;;4.28;;
74291;SDS011;62687;55.738;37.516;2023-02-11T00:08:59;9.00;;;3.97;;
74291;SDS011;62687;55.738;37.516;2023-02-11T00:14:11;12.13;;;4.47;;
74291;SDS011;62687;55.738;37.516;2023-02-11T00:16:55;14.55;;;5.43;;
74291;SDS011;62687;55.738;37.516;2023-02-11T00:19:39;11.38;;;4.90;;
74291;SDS011;62687;55.738;37.516;2023-02-11T00:22:24;7.47;;;3.10;;
74291;SDS011;62687;55.738;37.516;2023-02-11T00:25:08;9.85;;;3.70;;
74291;SDS011;62687;55.738;37.516;2023-02-11T00:27:52;9.30;;;3.95;;
74291;SDS011;62687;55.738;37.516;2023-02-11T00:30:36;10.02;;;4.25;;
74291;SDS011;62687;55.738;37.516;2023-02-11T00:33:20;9.43;;;4.13;;
74291;SDS011;62687;55.738;37.516;2023-02-11T00:36:08;6.68;;;3.10;;
74291;SDS011;62687;55.738;37.516;2023-02-11T00:39:03;8.32;;;2.80;;
74291;SDS011;62687;55.738;37.516;2023-02-11T00:41:48;14.50;;;4.50;;
74291;SDS011;62687;55.738;37.516;2023-02-11T00:44:32;10.02;;;3.13;;
74291;SDS011;62687;55.738;37.516;2023-02-11T00:47:16;7.93;;;3.00;;
74291;SDS011;62687;55.738;37.516;2023-02-11T00:50:00;15.98;;;4.65;;
74291;SDS011;62687;55.738;37.516;2023-02-11T00:52:47;10.93;;;3.70;;
74291;SDS011;62687;55.738;37.516;2023-02-11T00:55:31;11.80;;;4.25;;
74291;SDS011;62687;55.738;37.516;2023-02-11T00:58:15;10.77;;;3.88;;
74291;SDS011;62687;55.738;37.516;2023-02-11T01:01:00;12.43;;;3.53;;
74291;SDS011;62687;55.738;37.516;2023-02-11T01:03:45;6.00;;;2.53;;
74291;SDS011;62687;55.738;37.516;2023-02-11T01:06:29;11.85;;;4.00;;
74291;SDS011;62687;55.738;37.516;2023-02-11T01:09:13;8.70;;;3.65;;
74291;SDS011;62687;55.738;37.516;2023-02-11T01:11:57;11.73;;;4.55;;
74291;SDS011;62687;55.738;37.516;2023-02-11T01:14:42;8.82;;;2.95;;
74291;SDS011;62687;55.738;37.516;2023-02-11T01:17:26;12.63;;;3.85;;
74291;SDS011;62687;55.738;37.516;2023-02-11T01:20:14;13.02;;;4.78;;
74291;SDS011;62687;55.738;37.516;2023-02-11T01:23:04;9.95;;;3.28;;
74291;SDS011;62687;55.738;37.516;2023-02-11T01:25:48;11.88;;;3.97;;
74291;SDS011;62687;55.738;37.516;2023-02-11T01:28:33;9.48;;;4.15;;
74291;SDS011;62687;55.738;37.516;2023-02-11T01:31:17;6.93;;;2.53;;
74291;SDS011;62687;55.738;37.516;2023-02-11T01:34:01;7.20;;;2.15;;
74291;SDS011;62687;55.738;37.516;2023-02-11T01:36:45;6.18;;;2.47;;
74291;SDS011;62687;55.738;37.516;2023-02-11T01:39:31;6.80;;;2.53;;
74291;SDS011;62687;55.738;37.516;2023-02-11T01:42:17;7.07;;;3.22;;
74291;SDS011;62687;55.738;37.516;2023-02-11T01:48:29;9.73;;;3.00;;
74291;SDS011;62687;55.738;37.516;2023-02-11T01:51:20;11.15;;;4.32;;
74291;SDS011;62687;55.738;37.516;2023-02-11T01:54:08;12.77;;;3.85;;
74291;SDS011;62687;55.738;37.516;2023-02-11T01:57:15;12.80;;;3.75;;
74291;SDS011;62687;55.738;37.516;2023-02-11T02:00:09;11.45;;;3.78;;
74291;SDS011;62687;55.738;37.516;2023-02-11T02:03:08;7.20;;;2.08;;
74291;SDS011;62687;55.738;37.516;2023-02-11T02:06:02;6.97;;;2.15;;
74291;SDS011;62687;55.738;37.516;2023-02-11T02:09:00;6.15;;;2.20;;
74291;SDS011;62687;55.738;37.516;2023-02-11T02:11:49;4.32;;;1.83;;
74291;SDS011;62687;55.738;37.516;2023-02-11T02:14:36;8.57;;;2.42;;
74291;SDS011;62687;55.738;37.516;2023-02-11T02:17:29;7.57;;;2.22;;
74291;SDS011;62687;55.738;37.516;2023-02-11T02:20:32;6.00;;;1.25;;
74291;SDS011;62687;55.738;37.516;2023-02-11T02:29:34;11.65;;;3.03;;
74291;SDS011;62687;55.738;37.516;2023-02-11T02:32:49;9.35;;;3.25;;
74291;SDS011;62687;55.738;37.516;2023-02-11T02:36:03;4.65;;;2.00;;
74291;SDS011;62687;55.738;37.516;2023-02-11T02:41:50;6.95;;;2.22;;
74291;SDS011;62687;55.738;37.516;2023-02-11T02:44:36;5.88;;;2.03;;
74291;SDS011;62687;55.738;37.516;2023-02-11T02:47:20;11.23;;;3.05;;
74291;SDS011;62687;55.738;37.516;2023-02-11T02:50:04;9.55;;;3.28;;
74291;SDS011;62687;55.738;37.516;2023-02-11T03:07:39;6.97;;;2.17;;
74291;SDS011;62687;55.738;37.516;2023-02-11T03:10:29;7.43;;;1.85;;
74291;SDS011;62687;55.738;37.516;2023-02-11T03:13:16;6.95;;;1.90;;
74291;SDS011;62687;55.738;37.516;2023-02-11T03:16:22;8.05;;;1.70;;
74291;SDS011;62687;55.738;37.516;2023-02-11T03:19:12;5.05;;;1.70;;
74291;SDS011;62687;55.738;37.516;2023-02-11T03:22:01;4.88;;;1.35;;
74291;SDS011;62687;55.738;37.516;2023-02-11T03:24:48;3.78;;;1.27;;
74291;SDS011;62687;55.738;37.516;2023-02-11T03:27:40;4.90;;;1.42;;
74291;SDS011;62687;55.738;37.516;2023-02-11T03:30:32;6.22;;;0.98;;
74291;SDS011;62687;55.738;37.516;2023-02-11T03:33:58;5.72;;;1.90;;
74291;SDS011;62687;55.738;37.516;2023-02-11T03:36:52;5.00;;;1.80;;
74291;SDS011;62687;55.738;37.516;2023-02-11T03:39:41;3.28;;;0.90;;
74291;SDS011;62687;55.738;37.516;2023-02-11T03:42:39;8.88;;;1.98;;
74291;SDS011;62687;55.738;37.516;2023-02-11T03:45:30;6.20;;;1.80;;
74291;SDS011;62687;55.738;37.516;2023-02-11T03:48:22;6.05;;;1.65;;
74291;SDS011;62687;55.738;37.516;2023-02-11T03:51:11;5.13;;;1.77;;
74291;SDS011;62687;55.738;37.516;2023-02-11T03:53:59;7.90;;;2.35;;
74291;SDS011;62687;55.738;37.516;2023-02-11T03:56:51;6.55;;;1.60;;
74291;SDS011;62687;55.738;37.516;2023-02-11T03:59:56;7.95;;;2.20;;
74291;SDS011;62687;55.738;37.516;2023-02-11T04:05:26;8.43;;;2.40;;
74291;SDS011;62687;55.738;37.516;2023-02-11T04:08:10;9.48;;;2.78;;
74291;SDS011;62687;55.738;37.516;2023-02-11T04:10:54;6.10;;;2.08;;
74291;SDS011;62687;55.738;37.516;2023-02-11T04:13:38;7.80;;;2.70;;
74291;SDS011;62687;55.738;37.516;2023-02-11T04:16:22;10.82;;;2.42;;
74291;SDS011;62687;55.738;37.516;2023-02-11T04:19:06;6.22;;;2.58;;
74291;SDS011;62687;55.738;37.516;2023-02-11T04:21:50;6.63;;;1.90;;
74291;SDS011;62687;55.738;37.516;2023-02-11T04:24:34;8.65;;;2.72;;
74291;SDS011;62687;55.738;37.516;2023-02-11T04:27:19;10.82;;;3.10;;
74291;SDS011;62687;55.738;37.516;2023-02-11T04:30:03;9.57;;;2.70;;
74291;SDS011;62687;55.738;37.516;2023-02-11T04:32:48;6.82;;;1.92;;
74291;SDS011;62687;55.738;37.516;2023-02-11T04:35:32;5.60;;;2.13;;
74291;SDS011;62687;55.738;37.516;2023-02-11T04:38:16;6.75;;;2.15;;
74291;SDS011;62687;55.738;37.516;2023-02-11T04:41:00;5.75;;;1.67;;
74291;SDS011;62687;55.738;37.516;2023-02-11T04:43:44;6.13;;;2.25;;
74291;SDS011;62687;55.738;37.516;2023-02-11T04:46:28;6.65;;;2.20;;
74291;SDS011;62687;55.738;37.516;2023-02-11T04:49:12;10.25;;;2.80;;
74291;SDS011;62687;55.738;37.516;2023-02-11T04:51:57;7.30;;;2.13;;
74291;SDS011;62687;55.738;37.516;2023-02-11T04:54:41;9.02;;;2.60;;
74291;SDS011;62687;55.738;37.516;2023-02-11T04:57:25;7.10;;;2.10;;
74291;SDS011;62687;55.738;37.516;2023-02-11T05:00:09;3.85;;;1.50;;
74291;SDS011;62687;55.738;37.516;2023-02-11T05:02:53;6.25;;;1.90;;
74291;SDS011;62687;55.738;37.516;2023-02-11T05:05:38;4.75;;;1.15;;
74291;SDS011;62687;55.738;37.516;2023-02-11T05:08:23;4.43;;;1.75;;
74291;SDS011;62687;55.738;37.516;2023-02-11T05:11:08;8.10;;;2.03;;
74291;SDS011;62687;55.738;37.516;2023-02-11T05:13:59;7.00;;;0.68;;
74291;SDS011;62687;55.738;37.516;2023-02-11T05:16:43;4.22;;;1.02;;
74291;SDS011;62687;55.738;37.516;2023-02-11T05:19:27;4.80;;;1.30;;
74291;SDS011;62687;55.738;37.516;2023-02-11T05:22:11;4.13;;;1.38;;
74291;SDS011;62687;55.738;37.516;2023-02-11T05:24:55;8.13;;;1.80;;
74291;SDS011;62687;55.738;37.516;2023-02-11T05:27:39;3.47;;;1.35;;
74291;SDS011;62687;55.738;37.516;2023-02-11T05:30:23;2.67;;;1.15;;
74291;SDS011;62687;55.738;37.516;2023-02-11T05:33:07;3.45;;;1.00;;
74291;SDS011;62687;55.738;37.516;2023-02-11T05:35:51;4.85;;;1.55;;
74291;SDS011;62687;55.738;37.516;2023-02-11T05:38:35;8.27;;;1.50;;
74291;SDS011;62687;55.738;37.516;2023-02-11T05:41:19;5.60;;;1.52;;
74291;SDS011;62687;55.738;37.516;2023-02-11T05:44:03;6.88;;;1.02;;
74291;SDS011;62687;55.738;37.516;2023-02-11T05:46:47;9.02;;;1.67;;
74291;SDS011;62687;55.738;37.516;2023-02-11T05:49:32;8.25;;;2.10;;
74291;SDS011;62687;55.738;37.516;2023-02-11T05:52:16;7.05;;;2.10;;
74291;SDS011;62687;55.738;37.516;2023-02-11T05:55:00;7.07;;;1.83;;
74291;SDS011;62687;55.738;37.516;2023-02-11T05:57:44;5.57;;;1.75;;
74291;SDS011;62687;55.738;37.516;2023-02-11T06:00:28;7.57;;;1.63;;
74291;SDS011;62687;55.738;37.516;2023-02-11T06:03:12;5.03;;;1.70;;
74291;SDS011;62687;55.738;37.516;2023-02-11T06:05:56;9.68;;;2.45;;
74291;SDS011;62687;55.738;37.516;2023-02-11T06:08:40;9.55;;;2.55;;
74291;SDS011;62687;55.738;37.516;2023-02-11T06:11:25;6.22;;;1.77;;
74291;SDS011;62687;55.738;37.516;2023-02-11T06:14:09;13.63;;;3.03;;
74291;SDS011;62687;55.738;37.516;2023-02-11T06:16:54;8.02;;;2.10;;
74291;SDS011;62687;55.738;37.516;2023-02-11T06:19:38;8.13;;;1.45;;
74291;SDS011;62687;55.738;37.516;2023-02-11T06:22:22;11.75;;;2.90;;
74291;SDS011;62687;55.738;37.516;2023-02-11T06:25:05;6.88;;;1.95;;
74291;SDS011;62687;55.738;37.516;2023-02-11T06:27:50;8.98;;;2.85;;
74291;SDS011;62687;55.738;37.516;2023-02-11T06:30:34;8.98;;;2.80;;
74291;SDS011;62687;55.738;37.516;2023-02-11T06:33:20;4.70;;;1.55;;
74291;SDS011;62687;55.738;37.516;2023-02-11T06:36:04;9.20;;;1.80;;
74291;SDS011;62687;55.738;37.516;2023-02-11T06:38:55;4.05;;;1.30;;
74291;SDS011;62687;55.738;37.516;2023-02-11T06:41:39;6.07;;;2.05;;
74291;SDS011;62687;55.738;37.516;2023-02-11T06:44:23;5.07;;;2.10;;
74291;SDS011;62687;55.738;37.516;2023-02-11T06:47:07;14.73;;;2.80;;
74291;SDS011;62687;55.738;37.516;2023-02-11T06:49:51;5.85;;;2.33;;
74291;SDS011;62687;55.738;37.516;2023-02-11T06:52:35;5.55;;;2.10;;
74291;SDS011;62687;55.738;37.516;2023-02-11T06:55:19;8.85;;;2.80;;
74291;SDS011;62687;55.738;37.516;2023-02-11T06:58:03;8.85;;;3.05;;
74291;SDS011;62687;55.738;37.516;2023-02-11T07:00:47;9.55;;;3.03;;
74291;SDS011;62687;55.738;37.516;2023-02-11T07:03:32;6.68;;;2.17;;
74291;SDS011;62687;55.738;37.516;2023-02-11T07:06:21;6.43;;;2.42;;
74291;SDS011;62687;55.738;37.516;2023-02-11T07:09:10;10.32;;;2.78;;
74291;SDS011;62687;55.738;37.516;2023-02-11T07:11:54;9.05;;;3.17;;
74291;SDS011;62687;55.738;37.516;2023-02-11T07:14:38;7.13;;;2.42;;
74291;SDS011;62687;55.738;37.516;2023-02-11T07:17:22;6.25;;;2.40;;
74291;SDS011;62687;55.738;37.516;2023-02-11T07:20:06;13.98;;;3.10;;
74291;SDS011;62687;55.738;37.516;2023-02-11T07:22:52;4.82;;;1.90;;
74291;SDS011;62687;55.738;37.516;2023-02-11T07:25:36;7.90;;;2.83;;
74291;SDS011;62687;55.738;37.516;2023-02-11T07:28:20;5.53;;;1.85;;
74291;SDS011;62687;55.738;37.516;2023-02-11T07:31:08;8.98;;;2.65;;
74291;SDS011;62687;55.738;37.516;2023-02-11T07:33:55;6.38;;;2.20;;
74291;SDS011;62687;55.738;37.516;2023-02-11T07:36:41;8.10;;;3.30;;
74291;SDS011;62687;55.738;37.516;2023-02-11T07:39:28;9.55;;;2.80;;
74291;SDS011;62687;55.738;37.516;2023-02-11T07:42:13;10.88;;;3.08;;
74291;SDS011;62687;55.738;37.516;2023-02-11T07:44:56;8.13;;;2.92;;
74291;SDS011;62687;55.738;37.516;2023-02-11T07:47:40;7.43;;;2.85;;
74291;SDS011;62687;55.738;37.516;2023-02-11T07:50:25;7.55;;;2.30;;
74291;SDS011;62687;55.738;37.516;2023-02-11T07:53:09;9.10;;;2.80;;
74291;SDS011;62687;55.738;37.516;2023-02-11T07:55:52;13.23;;;2.90;;
74291;SDS011;62687;55.738;37.516;2023-02-11T07:58:36;10.73;;;3.72;;
74291;SDS011;62687;55.738;37.516;2023-02-11T08:01:22;9.40;;;2.53;;
74291;SDS011;62687;55.738;37.516;2023-02-11T08:04:08;4.97;;;2.15;;
74291;SDS011;62687;55.738;37.516;2023-02-11T08:06:52;10.25;;;3.75;;
74291;SDS011;62687;55.738;37.516;2023-02-11T08:09:38;10.55;;;3.63;;
74291;SDS011;62687;55.738;37.516;2023-02-11T08:12:22;11.30;;;3.42;;
74291;SDS011;62687;55.738;37.516;2023-02-11T08:15:06;10.23;;;3.08;;
74291;SDS011;62687;55.738;37.516;2023-02-11T08:17:50;12.90;;;3.60;;
74291;SDS011;62687;55.738;37.516;2023-02-11T08:20:35;9.15;;;3.67;;
74291;SDS011;62687;55.738;37.516;2023-02-11T08:23:19;9.73;;;3.72;;
74291;SDS011;62687;55.738;37.516;2023-02-11T08:26:04;7.80;;;2.95;;
74291;SDS011;62687;55.738;37.516;2023-02-11T08:28:51;7.55;;;2.75;;
74291;SDS011;62687;55.738;37.516;2023-02-11T08:31:37;5.55;;;2.25;;
74291;SDS011;62687;55.738;37.516;2023-02-11T08:34:23;11.27;;;3.47;;
74291;SDS011;62687;55.738;37.516;2023-02-11T08:37:07;7.22;;;2.85;;
74291;SDS011;62687;55.738;37.516;2023-02-11T08:39:51;12.10;;;3.67;;
74291;SDS011;62687;55.738;37.516;2023-02-11T08:42:35;11.63;;;4.25;;
74291;SDS011;62687;55.738;37.516;2023-02-11T08:45:19;10.85;;;3.58;;
74291;SDS011;62687;55.738;37.516;2023-02-11T08:48:03;12.48;;;4.45;;
74291;SDS011;62687;55.738;37.516;2023-02-11T08:50:47;10.70;;;4.38;;
74291;SDS011;62687;55.738;37.516;2023-02-11T08:53:31;11.18;;;3.97;;
74291;SDS011;62687;55.738;37.516;2023-02-11T08:56:16;11.27;;;4.00;;
74291;SDS011;62687;55.738;37.516;2023-02-11T08:59:02;9.77;;;3.92;;
74291;SDS011;62687;55.738;37.516;2023-02-11T09:01:46;9.27;;;3.03;;
74291;SDS011;62687;55.738;37.516;2023-02-11T09:04:31;6.63;;;2.45;;
74291;SDS011;62687;55.738;37.516;2023-02-11T09:07:15;17.02;;;4.05;;
74291;SDS011;62687;55.738;37.516;2023-02-11T09:09:59;9.45;;;3.05;;
74291;SDS011;62687;55.738;37.516;2023-02-11T09:12:43;13.75;;;3.55;;
74291;SDS011;62687;55.738;37.516;2023-02-11T09:15:27;10.98;;;3.55;;
74291;SDS011;62687;55.738;37.516;2023-02-11T09:18:12;7.93;;;2.90;;
74291;SDS011;62687;55.738;37.516;2023-02-11T09:21:03;7.25;;;2.83;;
74291;SDS011;62687;55.738;37.516;2023-02-11T09:23:49;7.32;;;3.03;;
74291;SDS011;62687;55.738;37.516;2023-02-11T09:26:33;10.32;;;3.15;;
74291;SDS011;62687;55.738;37.516;2023-02-11T09:29:18;10.88;;;3.15;;
74291;SDS011;62687;55.738;37.516;2023-02-11T09:32:02;12.45;;;3.80;;
74291;SDS011;62687;55.738;37.516;2023-02-11T09:34:47;6.97;;;3.22;;
74291;SDS011;62687;55.738;37.516;2023-02-11T09:37:31;10.25;;;3.58;;
74291;SDS011;62687;55.738;37.516;2023-02-11T09:40:15;6.63;;;2.38;;
74291;SDS011;62687;55.738;37.516;2023-02-11T09:43:04;8.82;;;3.08;;
74291;SDS011;62687;55.738;37.516;2023-02-11T09:46:13;7.63;;;1.95;;
74291;SDS011;62687;55.738;37.516;2023-02-11T09:49:00;6.15;;;1.85;;
74291;SDS011;62687;55.738;37.516;2023-02-11T09:51:51;7.72;;;2.22;;
74291;SDS011;62687;55.738;37.516;2023-02-11T09:54:49;4.50;;;1.73;;
74291;SDS011;62687;55.738;37.516;2023-02-11T09:57:40;11.05;;;2.85;;
74291;SDS011;62687;55.738;37.516;2023-02-11T10:00:32;9.50;;;2.85;;
74291;SDS011;62687;55.738;37.516;2023-02-11T10:09:21;7.13;;;2.88;;
74291;SDS011;62687;55.738;37.516;2023-02-11T10:12:15;10.23;;;3.42;;
74291;SDS011;62687;55.738;37.516;2023-02-11T10:22:24;9.45;;;3.50;;
74291;SDS011;62687;55.738;37.516;2023-02-11T10:28:12;9.15;;;2.88;;
74291;SDS011;62687;55.738;37.516;2023-02-11T10:31:15;11.55;;;3.17;;
74291;SDS011;62687;55.738;37.516;2023-02-11T10:34:04;12.32;;;3.75;;
74291;SDS011;62687;55.738;37.516;2023-02-11T10:36:50;8.90;;;3.15;;
74291;SDS011;62687;55.738;37.516;2023-02-11T10:39:34;8.60;;;3.20;;
74291;SDS011;62687;55.738;37.516;2023-02-11T10:42:18;8.73;;;2.97;;
74291;SDS011;62687;55.738;37.516;2023-02-11T10:45:02;9.85;;;3.00;;
74291;SDS011;62687;55.738;37.516;2023-02-11T10:47:50;7.80;;;2.72;;
74291;SDS011;62687;55.738;37.516;2023-02-11T10:50:34;7.28;;;2.70;;
74291;SDS011;62687;55.738;37.516;2023-02-11T10:53:19;10.05;;;3.10;;
74291;SDS011;62687;55.738;37.516;2023-02-11T10:56:04;8.73;;;3.25;;
74291;SDS011;62687;55.738;37.516;2023-02-11T10:59:00;7.25;;;2.97;;
74291;SDS011;62687;55.738;37.516;2023-02-11T11:02:01;9.77;;;2.63;;
74291;SDS011;62687;55.738;37.516;2023-02-11T11:04:49;7.75;;;2.90;;
74291;SDS011;62687;55.738;37.516;2023-02-11T11:07:39;9.82;;;3.78;;
74291;SDS011;62687;55.738;37.516;2023-02-11T11:14:12;7.25;;;2.38;;
74291;SDS011;62687;55.738;37.516;2023-02-11T11:16:35;11.70;;;4.38;;
74291;SDS011;62687;55.738;37.516;2023-02-11T11:19:21;8.40;;;3.67;;
74291;SDS011;62687;55.738;37.516;2023-02-11T11:22:09;10.45;;;3.55;;
74291;SDS011;62687;55.738;37.516;2023-02-11T11:25:03;11.85;;;4.00;;
74291;SDS011;62687;55.738;37.516;2023-02-11T11:27:49;10.60;;;2.88;;
74291;SDS011;62687;55.738;37.516;2023-02-11T11:30:38;9.85;;;3.78;;
74291;SDS011;62687;55.738;37.516;2023-02-11T11:33:26;11.90;;;4.45;;
74291;SDS011;62687;55.738;37.516;2023-02-11T11:36:14;11.90;;;4.38;;
74291;SDS011;62687;55.738;37.516;2023-02-11T11:39:13;8.23;;;3.67;;
74291;SDS011;62687;55.738;37.516;2023-02-11T11:42:24;10.98;;;4.35;;
74291;SDS011;62687;55.738;37.516;2023-02-11T11:50:55;12.52;;;4.25;;
74291;SDS011;62687;55.738;37.516;2023-02-11T11:56:52;8.45;;;3.05;;
74291;SDS011;62687;55.738;37.516;2023-02-11T11:59:44;9.50;;;4.35;;
74291;SDS011;62687;55.738;37.516;2023-02-11T12:02:34;11.15;;;4.47;;
74291;SDS011;62687;55.738;37.516;2023-02-11T12:05:44;9.95;;;4.00;;
74291;SDS011;62687;55.738;37.516;2023-02-11T12:11:57;10.15;;;4.53;;
74291;SDS011;62687;55.738;37.516;2023-02-11T12:18:35;12.15;;;4.57;;
74291;SDS011;62687;55.738;37.516;2023-02-11T12:21:49;9.23;;;3.95;;
74291;SDS011;62687;55.738;37.516;2023-02-11T12:28:02;8.77;;;4.05;;
74291;SDS011;62687;55.738;37.516;2023-02-11T12:31:09;8.13;;;3.72;;
74291;SDS011;62687;55.738;37.516;2023-02-11T12:41:09;8.88;;;3.72;;
74291;SDS011;62687;55.738;37.516;2023-02-11T12:43:57;9.25;;;3.92;;
74291;SDS011;62687;55.738;37.516;2023-02-11T12:46:44;12.45;;;3.83;;
74291;SDS011;62687;55.738;37.516;2023-02-11T12:53:20;10.63;;;4.05;;
74291;SDS011;62687;55.738;37.516;2023-02-11T13:08:35;11.95;;;3.55;;
74291;SDS011;62687;55.738;37.516;2023-02-11T13:11:33;12.68;;;3.97;;
74291;SDS011;62687;55.738;37.516;2023-02-11T13:17:21;13.82;;;5.00;;
74291;SDS011;62687;55.738;37.516;2023-02-11T13:20:34;12.48;;;4.45;;
74291;SDS011;62687;55.738;37.516;2023-02-11T13:23:29;19.00;;;5.32;;
74291;SDS011;62687;55.738;37.516;2023-02-11T13:27:23;15.30;;;5.13;;
74291;SDS011;62687;55.738;37.516;2023-02-11T13:35:41;13.00;;;4.35;;
74291;SDS011;62687;55.738;37.516;2023-02-11T13:38:34;15.25;;;5.22;;
74291;SDS011;62687;55.738;37.516;2023-02-11T13:41:22;9.20;;;3.45;;
74291;SDS011;62687;55.738;37.516;2023-02-11T13:46:53;14.90;;;5.45;;
74291;SDS011;62687;55.738;37.516;2023-02-11T13:49:42;16.85;;;5.40;;
74291;SDS011;62687;55.738;37.516;2023-02-11T13:52:36;16.20;;;5.85;;
74291;SDS011;62687;55.738;37.516;2023-02-11T13:55:21;14.90;;;5.38;;
74291;SDS011;62687;55.738;37.516;2023-02-11T14:00:50;14.20;;;4.80;;
74291;SDS011;62687;55.738;37.516;2023-02-11T14:03:35;17.30;;;5.47;;
74291;SDS011;62687;55.738;37.516;2023-02-11T14:06:40;12.45;;;4.28;;
74291;SDS011;62687;55.738;37.516;2023-02-11T14:10:52;18.30;;;4.95;;
74291;SDS011;62687;55.738;37.516;2023-02-11T14:16:29;12.30;;;4.25;;
74291;SDS011;62687;55.738;37.516;2023-02-11T14:19:14;13.82;;;5.72;;
74291;SDS011;62687;55.738;37.516;2023-02-11T14:22:20;15.77;;;6.55;;
74291;SDS011;62687;55.738;37.516;2023-02-11T14:25:26;14.38;;;4.93;;
74291;SDS011;62687;55.738;37.516;2023-02-11T14:28:15;15.18;;;6.22;;
74291;SDS011;62687;55.738;37.516;2023-02-11T14:31:17;15.57;;;5.10;;
74291;SDS011;62687;55.738;37.516;2023-02-11T14:42:39;16.42;;;5.20;;
74291;SDS011;62687;55.738;37.516;2023-02-11T14:45:25;13.35;;;3.47;;
74291;SDS011;62687;55.738;37.516;2023-02-11T14:48:15;18.27;;;4.40;;
74291;SDS011;62687;55.738;37.516;2023-02-11T14:51:08;11.68;;;4.68;;
74291;SDS011;62687;55.738;37.516;2023-02-11T14:53:57;14.27;;;4.95;;
74291;SDS011;62687;55.738;37.516;2023-02-11T14:56:47;17.45;;;6.32;;
74291;SDS011;62687;55.738;37.516;2023-02-11T14:59:59;11.48;;;3.45;;
74291;SDS011;62687;55.738;37.516;2023-02-11T15:02:47;15.57;;;4.68;;
74291;SDS011;62687;55.738;37.516;2023-02-11T15:05:31;15.25;;;4.75;;
74291;SDS011;62687;55.738;37.516;2023-02-11T15:08:16;17.10;;;6.25;;
74291;SDS011;62687;55.738;37.516;2023-02-11T15:11:00;14.90;;;4.07;;
74291;SDS011;62687;55.738;37.516;2023-02-11T15:13:47;17.00;;;6.00;;
74291;SDS011;62687;55.738;37.516;2023-02-11T15:16:32;17.58;;;5.03;;
74291;SDS011;62687;55.738;37.516;2023-02-11T15:22:18;11.23;;;3.75;;
74291;SDS011;62687;55.738;37.516;2023-02-11T15:25:08;12.30;;;5.35;;
74291;SDS011;62687;55.738;37.516;2023-02-11T15:27:59;18.80;;;5.57;;
74291;SDS011;62687;55.738;37.516;2023-02-11T15:30:44;14.55;;;5.13;;
74291;SDS011;62687;55.738;37.516;2023-02-11T15:33:28;20.23;;;7.10;;
74291;SDS011;62687;55.738;37.516;2023-02-11T15:36:15;15.63;;;6.50;;
74291;SDS011;62687;55.738;37.516;2023-02-11T15:45:08;11.23;;;4.07;;
74291;SDS011;62687;55.738;37.516;2023-02-11T15:47:55;13.10;;;4.20;;
74291;SDS011;62687;55.738;37.516;2023-02-11T15:51:07;11.55;;;4.55;;
74291;SDS011;62687;55.738;37.516;2023-02-11T15:54:05;11.32;;;3.85;;
74291;SDS011;62687;55.738;37.516;2023-02-11T15:56:58;13.27;;;3.75;;
74291;SDS011;62687;55.738;37.516;2023-02-11T15:59:47;14.80;;;4.78;;
74291;SDS011;62687;55.738;37.516;2023-02-11T16:02:33;16.15;;;6.18;;
74291;SDS011;62687;55.738;37.516;2023-02-11T16:05:24;16.77;;;5.78;;
74291;SDS011;62687;55.738;37.516;2023-02-11T16:08:19;15.35;;;4.30;;
74291;SDS011;62687;55.738;37.516;2023-02-11T16:11:04;15.00;;;4.40;;
74291;SDS011;62687;55.738;37.516;2023-02-11T16:13:51;14.25;;;5.50;;
74291;SDS011;62687;55.738;37.516;2023-02-11T16:16:36;16.90;;;4.70;;
74291;SDS011;62687;55.738;37.516;2023-02-11T16:19:21;14.70;;;4.00;;
74291;SDS011;62687;55.738;37.516;2023-02-11T16:22:09;10.82;;;3.78;;
74291;SDS011;62687;55.738;37.516;2023-02-11T16:24:58;14.82;;;4.38;;
74291;SDS011;62687;55.738;37.516;2023-02-11T16:27:42;11.50;;;4.25;;
74291;SDS011;62687;55.738;37.516;2023-02-11T16:30:33;16.02;;;4.40;;
74291;SDS011;62687;55.738;37.516;2023-02-11T16:33:22;17.67;;;5.85;;
74291;SDS011;62687;55.738;37.516;2023-02-11T16:36:13;10.50;;;3.28;;
74291;SDS011;62687;55.738;37.516;2023-02-11T16:39:01;14.73;;;4.85;;
74291;SDS011;62687;55.738;37.516;2023-02-11T16:41:45;14.20;;;4.85;;
74291;SDS011;62687;55.738;37.516;2023-02-11T16:44:30;17.17;;;4.88;;
74291;SDS011;62687;55.738;37.516;2023-02-11T16:47:17;15.35;;;5.05;;
74291;SDS011;62687;55.738;37.516;2023-02-11T16:50:04;13.52;;;4.95;;
74291;SDS011;62687;55.738;37.516;2023-02-11T16:52:52;8.10;;;3.28;;
74291;SDS011;62687;55.738;37.516;2023-02-11T16:55:36;15.73;;;4.90;;
74291;SDS011;62687;55.738;37.516;2023-02-11T16:58:20;16.60;;;4.38;;
74291;SDS011;62687;55.738;37.516;2023-02-11T17:01:05;12.80;;;4.25;;
74291;SDS011;62687;55.738;37.516;2023-02-11T17:03:49;19.05;;;6.13;;
74291;SDS011;62687;55.738;37.516;2023-02-11T17:06:34;17.02;;;5.50;;
74291;SDS011;62687;55.738;37.516;2023-02-11T17:09:25;11.25;;;3.50;;
74291;SDS011;62687;55.738;37.516;2023-02-11T17:12:10;12.75;;;4.07;;
74291;SDS011;62687;55.738;37.516;2023-02-11T17:14:54;12.10;;;4.00;;
74291;SDS011;62687;55.738;37.516;2023-02-11T17:17:38;14.27;;;5.15;;
74291;SDS011;62687;55.738;37.516;2023-02-11T17:20:22;13.45;;;4.47;;
74291;SDS011;62687;55.738;37.516;2023-02-11T17:23:06;10.68;;;4.03;;
74291;SDS011;62687;55.738;37.516;2023-02-11T17:25:54;15.32;;;4.60;;
74291;SDS011;62687;55.738;37.516;2023-02-11T17:28:39;16.90;;;5.70;;
74291;SDS011;62687;55.738;37.516;2023-02-11T17:31:23;9.00;;;3.75;;
74291;SDS011;62687;55.738;37.516;2023-02-11T17:34:08;13.00;;;4.00;;
74291;SDS011;62687;55.738;37.516;2023-02-11T17:36:52;12.75;;;3.83;;
74291;SDS011;62687;55.738;37.516;2023-02-11T17:39:37;10.55;;;4.13;;
74291;SDS011;62687;55.738;37.516;2023-02-11T17:42:22;11.55;;;4.70;;
74291;SDS011;62687;55.738;37.516;2023-02-11T17:45:06;10.77;;;3.88;;
74291;SDS011;62687;55.738;37.516;2023-02-11T17:47:51;5.97;;;2.20;;
74291;SDS011;62687;55.738;37.516;2023-02-11T17:50:35;13.82;;;3.70;;
74291;SDS011;62687;55.738;37.516;2023-02-11T17:53:20;10.38;;;3.85;;
74291;SDS011;62687;55.738;37.516;2023-02-11T17:56:04;7.32;;;2.80;;
74291;SDS011;62687;55.738;37.516;2023-02-11T17:58:50;11.32;;;4.82;;
74291;SDS011;62687;55.738;37.516;2023-02-11T18:01:36;10.98;;;3.38;;
74291;SDS011;62687;55.738;37.516;2023-02-11T18:04:21;12.88;;;3.92;;
74291;SDS011;62687;55.738;37.516;2023-02-11T18:07:06;8.73;;;2.90;;
74291;SDS011;62687;55.738;37.516;2023-02-11T18:09:50;12.73;;;4.57;;
74291;SDS011;62687;55.738;37.516;2023-02-11T18:12:35;15.07;;;3.53;;
74291;SDS011;62687;55.738;37.516;2023-02-11T18:15:19;8.77;;;3.50;;
74291;SDS011;62687;55.738;37.516;2023-02-11T18:18:03;14.15;;;3.70;;
74291;SDS011;62687;55.738;37.516;2023-02-11T18:20:57;8.85;;;3.33;;
74291;SDS011;62687;55.738;37.516;2023-02-11T18:23:43;11.50;;;4.82;;
74291;SDS011;62687;55.738;37.516;2023-02-11T18:31:56;12.48;;;4.35;;
74291;SDS011;62687;55.738;37.516;2023-02-11T18:34:40;14.63;;;4.43;;
74291;SDS011;62687;55.738;37.516;2023-02-11T18:37:25;10.68;;;3.80;;
74291;SDS011;62687;55.738;37.516;2023-02-11T18:40:09;9.85;;;4.10;;
74291;SDS011;62687;55.738;37.516;2023-02-11T18:42:54;9.13;;;3.28;;
74291;SDS011;62687;55.738;37.516;2023-02-11T18:45:45;21.85;;;4.85;;